Time;durP1;ratioP1;P1;durP2;ratioP2;P2;SDS_P1;SDS_P2;PMS_P1;PMS_P2;Temp;Humidity;BMP_temperature;BMP_pressure;BME280_temperature;BME280_humidity;BME280_pressure;Samples;Min_cycle;Max_cycle;Signal;HPM_P1;HPM_P2
2022/03/06 00:02:16;;;;;;;34.75;15.50;;;;;;;4.24;65.26;102578.69;4944960;28;20050;-51
2022/03/06 00:04:41;;;;;;;32.45;14.70;;;;;;;4.18;66.09;102581.75;4936995;28;20061;-54
2022/03/06 00:07:07;;;;;;;33.67;15.18;;;;;;;4.28;65.77;102588.41;4945447;28;20670;-51
2022/03/06 00:09:32;;;;;;;31.42;14.88;;;;;;;4.31;65.12;102588.63;4944364;28;20039;-53
2022/03/06 00:11:58;;;;;;;31.23;15.23;;;;;;;4.30;65.72;102589.41;4938607;28;20046;-52
2022/03/06 00:14:23;;;;;;;32.47;15.18;;;;;;;4.15;65.92;102591.88;4942984;28;20049;-53
2022/03/06 00:16:51;;;;;;;33.33;14.68;;;;;;;4.28;65.52;102585.81;4940073;28;20039;-55
2022/03/06 00:19:17;;;;;;;35.47;15.05;;;;;;;4.29;65.36;102591.09;4944513;28;20117;-53
2022/03/06 00:21:43;;;;;;;34.97;15.02;;;;;;;4.28;64.70;102594.47;4941954;28;20114;-53
2022/03/06 00:24:08;;;;;;;32.03;14.75;;;;;;;3.96;66.71;102594.94;4936671;28;20053;-52
2022/03/06 00:26:34;;;;;;;32.67;14.95;;;;;;;4.16;66.42;102595.34;4941044;28;20799;-53
2022/03/06 00:29:00;;;;;;;30.73;14.40;;;;;;;4.12;65.77;102586.50;4947964;28;20049;-52
2022/03/06 00:31:25;;;;;;;31.60;14.60;;;;;;;4.26;65.04;102587.44;4946054;28;20046;-53
2022/03/06 00:33:54;;;;;;;36.72;15.02;;;;;;;4.02;66.54;102597.03;4938111;28;20042;-56
2022/03/06 00:36:20;;;;;;;34.15;15.60;;;;;;;4.20;65.63;102593.09;4935868;28;20062;-49
2022/03/06 00:38:45;;;;;;;31.60;14.65;;;;;;;4.18;65.65;102597.25;4940629;28;20067;-54
2022/03/06 00:41:12;;;;;;;29.65;14.35;;;;;;;4.03;65.73;102597.09;4934940;28;20051;-54
2022/03/06 00:43:38;;;;;;;32.85;14.65;;;;;;;4.09;65.84;102600.09;4940301;28;20085;-50
2022/03/06 00:46:03;;;;;;;31.05;14.70;;;;;;;3.97;66.07;102601.84;4935974;28;20047;-51
2022/03/06 00:48:29;;;;;;;34.00;14.88;;;;;;;4.12;65.31;102602.00;4938335;28;20149;-53
2022/03/06 00:50:54;;;;;;;31.13;14.50;;;;;;;4.14;65.93;102599.53;4939632;28;20057;-54
2022/03/06 00:53:20;;;;;;;31.55;15.10;;;;;;;4.06;65.72;102605.06;4937331;28;20501;-49
2022/03/06 00:55:53;;;;;;;30.60;14.93;;;;;;;3.94;66.58;102619.72;4934393;28;20077;-53
2022/03/06 00:58:19;;;;;;;34.95;15.05;;;;;;;4.08;65.77;102618.97;4940420;28;20042;-54
2022/03/06 01:00:47;;;;;;;32.58;14.45;;;;;;;3.98;66.46;102616.56;4942432;28;20481;-52
2022/03/06 01:03:18;;;;;;;34.67;15.48;;;;;;;3.96;66.32;102619.84;4939608;28;20978;-55
2022/03/06 01:05:47;;;;;;;32.67;13.98;;;;;;;4.02;65.65;102620.25;4939686;28;20557;-53
2022/03/06 01:08:13;;;;;;;29.90;13.77;;;;;;;4.10;65.07;102621.63;4936549;28;20585;-50
2022/03/06 01:10:40;;;;;;;31.45;14.85;;;;;;;3.95;65.81;102638.69;4944028;28;20052;-54
2022/03/06 01:13:07;;;;;;;32.08;14.77;;;;;;;3.88;65.95;102632.22;4941146;28;20058;-52
2022/03/06 01:15:33;;;;;;;32.53;14.25;;;;;;;3.94;66.25;102632.63;4942581;28;20687;-49
2022/03/06 01:17:58;;;;;;;33.05;15.32;;;;;;;3.94;65.28;102632.63;4936290;28;20055;-51
2022/03/06 01:20:24;;;;;;;31.65;14.63;;;;;;;3.98;65.52;102638.88;4941387;28;20127;-51
2022/03/06 01:22:51;;;;;;;31.13;15.32;;;;;;;3.80;65.77;102642.78;4945910;28;20049;-51
2022/03/06 01:25:17;;;;;;;37.10;15.65;;;;;;;3.83;65.73;102635.28;4940371;28;20054;-51
2022/03/06 01:27:42;;;;;;;29.90;15.20;;;;;;;3.93;65.43;102641.16;4943837;28;20070;-54
2022/03/06 01:30:10;;;;;;;34.28;15.63;;;;;;;3.82;65.21;102647.28;4935324;28;20373;-52
2022/03/06 01:32:36;;;;;;;33.65;15.27;;;;;;;3.84;64.98;102648.25;4939448;28;20062;-51
2022/03/06 01:35:02;;;;;;;33.30;16.40;;;;;;;3.65;66.23;102651.28;4941178;28;20105;-53
2022/03/06 01:37:27;;;;;;;32.95;16.33;;;;;;;3.59;67.31;102650.84;4938286;28;20057;-52
2022/03/06 01:39:53;;;;;;;37.40;16.65;;;;;;;3.84;66.41;102656.00;4930246;28;20484;-54
2022/03/06 01:42:18;;;;;;;31.13;16.35;;;;;;;3.87;66.17;102651.06;4954127;28;20834;-54
2022/03/06 01:44:45;;;;;;;33.20;16.85;;;;;;;3.84;66.22;102658.56;4943121;28;20387;-54
2022/03/06 01:47:10;;;;;;;38.70;17.10;;;;;;;3.77;66.78;102661.53;4944734;28;20046;-51
2022/03/06 01:49:36;;;;;;;34.83;17.15;;;;;;;3.85;66.58;102659.47;4940880;28;20053;-53
2022/03/06 01:52:01;;;;;;;35.22;16.63;;;;;;;3.85;65.92;102660.38;4939788;28;20083;-51
2022/03/06 01:54:27;;;;;;;36.78;16.63;;;;;;;3.78;66.73;102660.72;4941721;28;20593;-51
2022/03/06 01:56:52;;;;;;;33.72;16.45;;;;;;;3.75;66.43;102646.75;4941561;28;20498;-53
2022/03/06 01:59:18;;;;;;;37.47;17.63;;;;;;;3.51;67.43;102657.16;4940252;28;20054;-51
2022/03/06 02:01:43;;;;;;;37.35;17.63;;;;;;;3.57;67.49;102667.00;4938270;28;20042;-55
2022/03/06 02:04:09;;;;;;;35.55;17.20;;;;;;;3.77;67.09;102668.38;4932555;28;20043;-52
2022/03/06 02:06:37;;;;;;;35.30;17.23;;;;;;;3.78;66.83;102660.72;4941540;28;20233;-51
2022/03/06 02:09:02;;;;;;;34.00;17.70;;;;;;;3.76;66.68;102664.00;4946427;28;20780;-51
2022/03/06 02:11:28;;;;;;;36.33;18.08;;;;;;;3.85;67.03;102668.09;4928702;28;20172;-57
2022/03/06 02:13:54;;;;;;;37.17;18.48;;;;;;;3.95;66.79;102661.91;4934126;28;20443;-50
2022/03/06 02:16:20;;;;;;;39.85;18.48;;;;;;;3.93;67.25;102661.78;4943210;28;20046;-51
2022/03/06 02:18:45;;;;;;;34.53;18.13;;;;;;;3.93;67.44;102659.22;4942069;28;20043;-49
2022/03/06 02:21:12;;;;;;;35.60;18.88;;;;;;;4.09;66.24;102650.81;4940762;28;20086;-53
2022/03/06 02:23:38;;;;;;;36.80;18.95;;;;;;;4.20;66.51;102654.16;4940576;28;20577;-51
2022/03/06 02:26:05;;;;;;;39.90;19.17;;;;;;;4.09;67.30;102662.03;4935920;28;20042;-50
2022/03/06 02:28:30;;;;;;;35.00;18.38;;;;;;;4.24;66.13;102654.44;4941399;28;20123;-53
2022/03/06 02:30:56;;;;;;;38.47;19.15;;;;;;;4.22;66.37;102662.88;4942669;28;20108;-50
2022/03/06 02:33:22;;;;;;;38.88;19.45;;;;;;;4.43;65.55;102659.16;4944189;28;20042;-52
2022/03/06 02:35:48;;;;;;;39.10;19.70;;;;;;;4.45;65.29;102661.03;4939078;28;20560;-53
2022/03/06 02:38:14;;;;;;;37.85;19.50;;;;;;;4.40;65.80;102662.41;4934349;28;20609;-50
2022/03/06 02:40:41;;;;;;;37.03;19.40;;;;;;;4.39;65.87;102660.63;4945199;28;20049;-52
2022/03/06 02:43:08;;;;;;;36.40;19.77;;;;;;;4.40;66.10;102661.50;4944499;28;20046;-51
2022/03/06 02:45:34;;;;;;;41.97;20.30;;;;;;;4.43;65.45;102665.22;4946083;28;20462;-53
2022/03/06 02:48:00;;;;;;;38.05;20.05;;;;;;;4.38;65.70;102661.44;4932726;28;20503;-54
2022/03/06 02:50:30;;;;;;;35.50;19.48;;;;;;;4.62;65.60;102659.56;4949474;28;20101;-54
2022/03/06 02:52:57;;;;;;;38.25;19.85;;;;;;;4.62;65.23;102658.69;4943834;28;20038;-52
2022/03/06 02:55:23;;;;;;;36.95;20.10;;;;;;;4.61;64.65;102664.63;4938408;28;20070;-53
2022/03/06 02:57:49;;;;;;;39.03;20.55;;;;;;;4.60;64.68;102661.16;4937893;28;20125;-49
2022/03/06 03:00:27;;;;;;;36.70;20.13;;;;;;;4.42;65.39;102659.94;4940401;28;20083;-53
2022/03/06 03:02:53;;;;;;;35.92;19.45;;;;;;;4.73;64.15;102665.44;4942001;28;20051;-51
2022/03/06 03:05:19;;;;;;;36.90;20.23;;;;;;;4.65;64.63;102664.03;4945511;28;20050;-52
2022/03/06 03:07:49;;;;;;;37.95;20.20;;;;;;;4.60;64.95;102673.16;4941331;28;20592;-51
2022/03/06 03:10:16;;;;;;;38.15;21.02;;;;;;;4.40;65.60;102669.25;4943428;28;20057;-48
2022/03/06 03:12:43;;;;;;;41.78;20.92;;;;;;;4.51;65.16;102672.59;4941861;28;20042;-53
2022/03/06 03:15:09;;;;;;;41.88;21.20;;;;;;;4.52;65.29;102676.94;4949360;28;20050;-54
2022/03/06 03:17:35;;;;;;;37.28;20.23;;;;;;;4.31;65.77;102681.56;4939544;28;20041;-57
2022/03/06 03:20:01;;;;;;;41.15;21.15;;;;;;;4.28;65.21;102674.50;4941454;28;20465;-54
2022/03/06 03:22:26;;;;;;;41.05;21.20;;;;;;;4.46;65.17;102680.91;4943452;28;20047;-53
2022/03/06 03:24:52;;;;;;;37.92;20.92;;;;;;;4.29;65.25;102678.88;4939645;28;20132;-52
2022/03/06 03:27:17;;;;;;;40.35;21.33;;;;;;;4.30;65.36;102684.94;4940902;28;20495;-55
2022/03/06 03:29:43;;;;;;;39.85;21.15;;;;;;;4.41;64.71;102673.63;4942347;28;20411;-54
2022/03/06 03:32:08;;;;;;;39.05;21.00;;;;;;;4.29;64.82;102684.03;4942098;28;20109;-53
2022/03/06 03:34:34;;;;;;;37.35;21.13;;;;;;;4.29;65.07;102691.78;4944484;28;20042;-55
2022/03/06 03:36:59;;;;;;;39.13;21.38;;;;;;;4.37;64.69;102688.03;4938444;28;20051;-52
2022/03/06 03:39:25;;;;;;;39.20;21.02;;;;;;;4.37;64.03;102688.03;4941343;28;20031;-54
2022/03/06 03:41:50;;;;;;;41.15;21.27;;;;;;;4.31;64.50;102690.22;4936763;28;20043;-56
2022/03/06 03:44:15;;;;;;;40.08;21.30;;;;;;;4.17;65.04;102688.38;4956935;28;20054;-54
2022/03/06 03:46:41;;;;;;;39.05;21.08;;;;;;;4.00;64.63;102691.50;4940941;28;20059;-52
2022/03/06 03:49:06;;;;;;;40.83;21.13;;;;;;;4.00;65.17;102689.81;4941475;28;20049;-52
2022/03/06 03:51:32;;;;;;;42.00;21.15;;;;;;;4.08;64.38;102690.34;4935757;28;20031;-52
2022/03/06 03:53:58;;;;;;;40.25;20.42;;;;;;;4.19;64.67;102689.38;4937870;28;20146;-52
2022/03/06 03:56:23;;;;;;;41.53;21.42;;;;;;;4.08;64.36;102690.34;4941443;28;20050;-51
2022/03/06 03:58:50;;;;;;;39.47;20.00;;;;;;;3.93;64.73;102692.75;4942263;28;20757;-55
2022/03/06 04:01:17;;;;;;;39.38;20.90;;;;;;;3.96;64.74;102690.41;4944820;28;20576;-56
2022/03/06 04:03:42;;;;;;;40.10;20.67;;;;;;;3.99;64.62;102694.88;4940083;28;20938;-51
2022/03/06 04:06:07;;;;;;;42.05;22.05;;;;;;;3.84;65.37;102691.25;4927036;28;20116;-51
2022/03/06 04:08:33;;;;;;;40.55;21.83;;;;;;;3.84;65.05;102688.66;4942301;28;20109;-51
2022/03/06 04:10:59;;;;;;;39.17;21.50;;;;;;;3.83;65.31;102692.94;4945992;28;20093;-53
2022/03/06 04:13:26;;;;;;;38.38;20.33;;;;;;;3.84;65.70;102686.94;4944301;28;20042;-52
2022/03/06 04:15:51;;;;;;;40.45;21.15;;;;;;;3.77;65.48;102687.34;4935240;28;20038;-58
2022/03/06 04:18:16;;;;;;;43.45;22.70;;;;;;;3.75;65.85;102693.16;4943326;28;20153;-55
2022/03/06 04:20:42;;;;;;;41.35;21.58;;;;;;;3.71;65.55;102704.06;4943659;28;20671;-54
2022/03/06 04:23:08;;;;;;;40.85;21.95;;;;;;;3.64;66.25;102695.91;4943707;28;20479;-52
2022/03/06 04:25:34;;;;;;;40.97;21.92;;;;;;;3.67;65.84;102690.94;4944893;28;20514;-53
2022/03/06 04:27:59;;;;;;;41.03;21.40;;;;;;;3.62;65.64;102694.00;4936962;28;20101;-56
2022/03/06 04:30:25;;;;;;;43.13;22.17;;;;;;;3.56;66.11;102701.31;4938123;28;20854;-55
2022/03/06 04:32:51;;;;;;;41.58;21.85;;;;;;;3.56;65.83;102702.19;4946282;28;20073;-52
2022/03/06 04:35:16;;;;;;;39.75;20.98;;;;;;;3.49;65.85;102699.97;4942977;28;20434;-54
2022/03/06 04:37:41;;;;;;;39.15;20.50;;;;;;;3.44;65.43;102708.16;4943621;28;20046;-54
2022/03/06 04:40:08;;;;;;;39.80;21.17;;;;;;;3.38;65.94;102706.06;4910059;28;20344;-54
2022/03/06 04:42:33;;;;;;;40.67;21.95;;;;;;;3.40;66.08;102703.59;4944066;28;20129;-51
2022/03/06 04:44:59;;;;;;;38.42;21.40;;;;;;;3.34;66.12;102716.03;4942588;28;20065;-52
2022/03/06 04:47:24;;;;;;;44.55;21.63;;;;;;;3.31;66.39;102706.41;4939486;28;20046;-51
2022/03/06 04:49:50;;;;;;;38.45;21.27;;;;;;;3.29;66.44;102719.97;4942782;28;20290;-54
2022/03/06 04:52:15;;;;;;;40.25;21.02;;;;;;;3.31;66.24;102713.22;4939248;28;20046;-52
2022/03/06 04:54:41;;;;;;;41.83;20.83;;;;;;;3.25;65.79;102724.00;4937586;28;20293;-52
2022/03/06 04:57:06;;;;;;;39.25;20.85;;;;;;;3.11;66.42;102733.31;4940519;28;20241;-53
2022/03/06 04:59:31;;;;;;;39.88;21.27;;;;;;;3.08;66.56;102737.34;4939448;28;20034;-49
2022/03/06 05:01:57;;;;;;;37.63;20.05;;;;;;;3.06;66.41;102736.31;4922554;28;20514;-50
2022/03/06 05:04:22;;;;;;;39.88;21.38;;;;;;;3.02;66.73;102742.94;4941498;28;20125;-54
2022/03/06 05:06:47;;;;;;;38.85;20.52;;;;;;;3.12;65.94;102740.25;4935984;28;21182;-53
2022/03/06 05:09:13;;;;;;;39.03;21.05;;;;;;;3.01;65.98;102741.16;4939155;28;20491;-50
2022/03/06 05:11:38;;;;;;;40.03;20.80;;;;;;;3.02;65.70;102747.22;4941329;28;20185;-50
2022/03/06 05:14:04;;;;;;;37.20;20.92;;;;;;;2.90;66.29;102749.78;4936003;28;21063;-51
2022/03/06 05:16:29;;;;;;;40.60;21.50;;;;;;;2.91;66.34;102753.25;4941322;28;20050;-52
2022/03/06 05:18:56;;;;;;;36.70;20.25;;;;;;;2.77;66.85;102753.13;4942005;28;20050;-51
2022/03/06 05:21:21;;;;;;;40.33;20.27;;;;;;;2.91;65.98;102749.00;4942561;28;20723;-50
2022/03/06 05:23:47;;;;;;;39.00;20.48;;;;;;;2.74;66.21;102745.19;4935732;28;20039;-54
2022/03/06 05:26:12;;;;;;;36.72;20.35;;;;;;;2.67;66.21;102753.22;4936327;28;20596;-53
2022/03/06 05:28:39;;;;;;;38.20;20.05;;;;;;;2.70;66.20;102748.28;4942102;28;20050;-54
2022/03/06 05:31:05;;;;;;;39.00;20.92;;;;;;;2.61;66.14;102755.34;4932483;28;20085;-51
2022/03/06 05:33:30;;;;;;;39.47;20.85;;;;;;;2.64;67.18;102758.13;4941691;28;20043;-54
2022/03/06 05:35:55;;;;;;;40.17;19.83;;;;;;;2.63;66.44;102746.03;4938556;28;20046;-52
2022/03/06 05:38:21;;;;;;;37.45;20.23;;;;;;;2.71;66.58;102756.91;4935530;28;20852;-54
2022/03/06 05:40:47;;;;;;;40.60;20.58;;;;;;;2.71;66.58;102756.91;4942122;28;20078;-52
2022/03/06 05:43:12;;;;;;;35.10;19.52;;;;;;;2.61;66.23;102764.75;4940444;28;20110;-54
2022/03/06 05:45:37;;;;;;;39.00;20.10;;;;;;;2.65;66.70;102767.66;4935751;28;20039;-52
2022/03/06 05:48:03;;;;;;;37.80;20.08;;;;;;;2.69;66.17;102771.34;4936946;28;20086;-51
2022/03/06 05:50:31;;;;;;;40.05;20.20;;;;;;;2.68;66.60;102770.47;4939429;28;20109;-54
2022/03/06 05:52:56;;;;;;;34.83;18.38;;;;;;;2.69;66.19;102776.50;4939765;28;20506;-55
2022/03/06 05:55:22;;;;;;;38.28;19.35;;;;;;;2.70;65.96;102770.56;4935951;28;20236;-51
2022/03/06 05:57:47;;;;;;;35.38;18.83;;;;;;;2.71;66.46;102781.00;4939877;28;20047;-52
2022/03/06 06:00:16;;;;;;;35.15;19.02;;;;;;;2.82;66.01;102785.25;4931545;28;20077;-50
2022/03/06 06:02:41;;;;;;;36.75;19.23;;;;;;;2.63;66.23;102779.50;4939894;28;20125;-54
2022/03/06 06:05:08;;;;;;;37.08;18.30;;;;;;;2.72;65.89;102787.94;4940220;28;20054;-53
2022/03/06 06:07:34;;;;;;;35.92;18.88;;;;;;;2.83;65.75;102788.75;4936517;28;20071;-55
2022/03/06 06:10:00;;;;;;;35.30;18.15;;;;;;;2.82;65.49;102794.66;4937564;28;20221;-54
2022/03/06 06:12:25;;;;;;;34.28;18.08;;;;;;;2.79;65.09;102805.66;4932986;28;20042;-52
2022/03/06 06:14:51;;;;;;;32.47;17.73;;;;;;;2.80;65.60;102804.88;4943440;28;20042;-51
2022/03/06 06:17:16;;;;;;;34.63;17.95;;;;;;;2.91;64.87;102807.34;4941438;28;20347;-54
2022/03/06 06:19:42;;;;;;;33.70;17.70;;;;;;;2.84;65.05;102813.72;4937220;28;20051;-51
2022/03/06 06:22:07;;;;;;;31.92;17.98;;;;;;;2.83;64.69;102819.66;4940182;28;20509;-51
2022/03/06 06:24:33;;;;;;;32.83;17.58;;;;;;;2.81;65.39;102816.94;4942298;28;20062;-52
2022/03/06 06:26:58;;;;;;;33.30;17.73;;;;;;;2.87;64.43;102819.09;4945020;28;20310;-56
2022/03/06 06:29:24;;;;;;;34.53;17.73;;;;;;;2.89;64.77;102821.78;4945930;28;20049;-51
2022/03/06 06:31:51;;;;;;;31.00;17.80;;;;;;;2.92;65.16;102827.19;4939112;28;20165;-51
2022/03/06 06:34:17;;;;;;;33.13;17.60;;;;;;;2.80;65.54;102822.91;4940356;28;20043;-54
2022/03/06 06:36:42;;;;;;;32.17;17.73;;;;;;;2.89;64.67;102824.38;4940176;28;20047;-55
2022/03/06 06:39:11;;;;;;;31.75;17.63;;;;;;;2.80;65.01;102822.00;4944513;28;20046;-54
2022/03/06 06:41:40;;;;;;;34.90;18.25;;;;;;;2.87;64.73;102829.38;4943605;28;20050;-52
2022/03/06 06:44:06;;;;;;;32.53;16.63;;;;;;;2.95;64.30;102832.56;4933091;28;20146;-54
2022/03/06 06:46:32;;;;;;;32.90;16.85;;;;;;;2.96;64.57;102824.94;4938533;28;20145;-55
2022/03/06 06:48:58;;;;;;;34.20;18.17;;;;;;;3.02;64.01;102830.56;4941482;28;20059;-52
2022/03/06 06:51:23;;;;;;;30.85;16.90;;;;;;;3.15;63.47;102829.78;4945711;28;20514;-54
2022/03/06 06:53:48;;;;;;;31.20;16.73;;;;;;;3.22;63.30;102837.19;4938925;28;20043;-54
2022/03/06 06:56:14;;;;;;;30.40;16.42;;;;;;;3.29;63.34;102842.03;4935058;28;22177;-54
2022/03/06 06:58:39;;;;;;;29.45;16.20;;;;;;;3.58;63.31;102839.91;4950466;28;20108;-56
2022/03/06 07:01:05;;;;;;;30.63;15.43;;;;;;;4.11;61.64;102845.41;4942316;28;20117;-54
2022/03/06 07:03:31;;;;;;;28.42;15.10;;;;;;;4.65;59.77;102848.34;4943860;28;20046;-56
2022/03/06 07:05:57;;;;;;;26.92;15.00;;;;;;;5.03;57.91;102850.06;4931231;28;20043;-55
2022/03/06 07:08:22;;;;;;;24.90;14.27;;;;;;;5.47;56.77;102842.66;4942560;28;20684;-52
2022/03/06 07:10:48;;;;;;;24.75;14.05;;;;;;;5.65;55.97;102852.50;4945705;28;20127;-52
2022/03/06 07:13:14;;;;;;;25.27;13.25;;;;;;;5.99;55.36;102850.41;4940411;28;20382;-52
2022/03/06 07:15:39;;;;;;;22.55;12.88;;;;;;;5.79;55.07;102848.22;4938718;28;20137;-51
2022/03/06 07:18:05;;;;;;;24.48;13.10;;;;;;;6.29;53.89;102855.69;4937196;28;20387;-51
2022/03/06 07:20:30;;;;;;;20.40;12.23;;;;;;;6.07;54.05;102861.25;4944514;28;20129;-54
2022/03/06 07:22:56;;;;;;;21.95;11.48;;;;;;;5.72;55.09;102856.38;4944603;28;20045;-53
2022/03/06 07:25:22;;;;;;;19.80;12.13;;;;;;;5.71;54.53;102870.13;4937464;28;20445;-53
2022/03/06 07:27:48;;;;;;;19.10;11.45;;;;;;;5.11;56.29;102880.81;4939432;28;20060;-50
2022/03/06 07:30:14;;;;;;;22.10;11.90;;;;;;;5.32;56.47;102881.31;4936339;28;20109;-51
2022/03/06 07:32:41;;;;;;;19.90;11.15;;;;;;;5.18;56.90;102882.13;4943311;28;20564;-53
2022/03/06 07:35:07;;;;;;;21.63;11.95;;;;;;;5.29;56.61;102882.03;4947294;28;20046;-53
2022/03/06 07:37:32;;;;;;;20.23;11.52;;;;;;;5.13;56.82;102883.47;4938037;28;20418;-52
2022/03/06 07:39:58;;;;;;;21.55;11.73;;;;;;;5.35;56.71;102886.72;4940882;28;20173;-54
2022/03/06 07:42:23;;;;;;;19.77;10.95;;;;;;;5.56;56.12;102895.88;4935656;28;20046;-53
2022/03/06 07:44:48;;;;;;;20.42;10.98;;;;;;;5.36;56.76;102891.09;4939529;28;20568;-55
2022/03/06 07:47:14;;;;;;;18.77;10.40;;;;;;;5.29;56.71;102887.22;4939259;28;20061;-50
2022/03/06 07:49:39;;;;;;;19.00;10.68;;;;;;;5.46;56.60;102888.31;4957233;28;20121;-54
2022/03/06 07:52:04;;;;;;;17.90;10.30;;;;;;;5.56;56.30;102894.97;4937206;28;20567;-54
2022/03/06 07:54:30;;;;;;;20.88;11.10;;;;;;;5.46;56.27;102906.44;4939814;28;20042;-52
2022/03/06 07:56:55;;;;;;;20.88;11.00;;;;;;;5.17;56.74;102901.91;4940291;28;20054;-51
2022/03/06 07:59:24;;;;;;;22.77;10.60;;;;;;;5.43;56.02;102898.44;4946290;28;20046;-55
2022/03/06 08:01:49;;;;;;;19.98;10.48;;;;;;;5.33;56.79;102898.63;4939160;28;20049;-56
2022/03/06 08:04:14;;;;;;;19.40;10.68;;;;;;;5.63;56.66;102895.50;4937360;28;20047;-53
2022/03/06 08:06:40;;;;;;;18.65;10.38;;;;;;;5.57;56.59;102902.84;4942005;28;20058;-53
2022/03/06 08:09:05;;;;;;;17.45;9.82;;;;;;;5.91;56.04;102903.41;4947640;28;20051;-55
2022/03/06 08:11:30;;;;;;;17.90;9.93;;;;;;;6.15;55.27;102906.66;4940229;28;20134;-51
2022/03/06 08:13:56;;;;;;;18.52;10.15;;;;;;;5.63;55.92;102920.47;4929902;28;20105;-55
2022/03/06 08:16:21;;;;;;;18.75;9.98;;;;;;;5.83;54.50;102921.78;4937649;28;20620;-52
2022/03/06 08:18:46;;;;;;;18.67;10.32;;;;;;;5.83;54.77;102911.41;4937188;28;20097;-55
2022/03/06 08:21:12;;;;;;;18.40;10.02;;;;;;;5.94;54.25;102924.28;4945784;28;20124;-52
2022/03/06 08:23:37;;;;;;;19.42;10.07;;;;;;;5.92;54.20;102918.09;4941790;28;20426;-52
2022/03/06 08:26:03;;;;;;;18.20;9.40;;;;;;;5.96;52.84;102924.41;4933565;28;20107;-53
2022/03/06 08:28:28;;;;;;;17.30;9.63;;;;;;;6.31;52.55;102931.81;4940284;28;20046;-53
2022/03/06 08:30:53;;;;;;;16.80;9.45;;;;;;;6.55;51.61;102930.75;4939193;28;20214;-54
2022/03/06 08:33:19;;;;;;;16.45;8.82;;;;;;;6.55;50.88;102935.94;4942310;28;20296;-51
2022/03/06 08:35:44;;;;;;;15.63;8.85;;;;;;;6.77;50.85;102920.03;4936509;28;20042;-55
2022/03/06 08:38:10;;;;;;;16.17;8.65;;;;;;;6.46;50.50;102930.22;4939493;28;20446;-54
2022/03/06 08:40:35;;;;;;;16.10;8.38;;;;;;;5.92;50.57;102937.91;4941520;28;20085;-53
2022/03/06 08:43:00;;;;;;;14.82;8.13;;;;;;;5.95;50.54;102935.53;4936516;28;20090;-50
2022/03/06 08:45:26;;;;;;;15.75;8.05;;;;;;;6.22;50.59;102928.66;4940704;28;20131;-53
2022/03/06 08:47:51;;;;;;;16.48;8.63;;;;;;;6.07;50.63;102931.16;4932510;28;20041;-55
2022/03/06 08:50:16;;;;;;;17.23;8.45;;;;;;;6.43;50.25;102928.31;4942735;28;20074;-52
2022/03/06 08:52:42;;;;;;;19.45;8.68;;;;;;;6.23;48.30;102939.09;4939277;28;20452;-50
2022/03/06 08:55:09;;;;;;;14.20;8.38;;;;;;;6.46;47.39;102930.22;4940475;28;20390;-52
2022/03/06 08:57:36;;;;;;;15.20;7.78;;;;;;;6.17;48.03;102930.94;4937758;28;20081;-50
2022/03/06 09:00:05;;;;;;;14.73;8.57;;;;;;;6.10;48.58;102947.78;4930637;28;20051;-52
2022/03/06 09:02:30;;;;;;;13.85;8.07;;;;;;;6.60;47.67;102947.50;4945018;28;20097;-51
2022/03/06 09:04:56;;;;;;;16.83;7.80;;;;;;;6.79;46.87;102941.75;4938251;28;20082;-54
2022/03/06 09:07:23;;;;;;;13.43;7.97;;;;;;;6.74;47.90;102944.06;4941218;28;20050;-54
2022/03/06 09:09:49;;;;;;;13.55;7.57;;;;;;;6.86;46.87;102944.81;4938266;28;20078;-53
2022/03/06 09:12:15;;;;;;;15.45;7.90;;;;;;;6.70;47.08;102943.78;4935814;28;20055;-49
2022/03/06 09:14:40;;;;;;;14.20;7.10;;;;;;;7.15;47.07;102936.19;4940340;28;20057;-50
2022/03/06 09:17:07;;;;;;;14.57;7.75;;;;;;;7.27;46.21;102947.31;4939248;28;20050;-54
2022/03/06 09:19:32;;;;;;;12.02;7.40;;;;;;;6.83;46.42;102941.16;4940951;28;20055;-54
2022/03/06 09:21:58;;;;;;;11.30;7.00;;;;;;;6.99;45.59;102940.38;4931936;28;20042;-55
2022/03/06 09:24:23;;;;;;;12.88;7.22;;;;;;;7.18;44.82;102943.28;4941405;28;20144;-54
2022/03/06 09:26:48;;;;;;;11.57;7.13;;;;;;;7.07;44.82;102941.75;4936592;28;20502;-51
2022/03/06 09:29:14;;;;;;;12.23;6.95;;;;;;;7.00;46.12;102949.97;4934430;28;20046;-54
2022/03/06 09:31:39;;;;;;;12.88;7.90;;;;;;;7.10;46.04;102953.19;4939971;28;20311;-53
2022/03/06 09:34:06;;;;;;;13.48;7.53;;;;;;;7.19;45.39;102947.69;4948968;28;20102;-54
2022/03/06 09:36:31;;;;;;;13.27;7.03;;;;;;;7.23;45.23;102945.34;4945170;28;20585;-52
2022/03/06 09:38:57;;;;;;;12.40;7.25;;;;;;;7.83;45.01;102948.84;4938316;28;20637;-53
2022/03/06 09:41:28;;;;;;;12.35;7.60;;;;;;;7.30;45.10;102947.50;4940173;28;20042;-51
2022/03/06 09:43:56;;;;;;;12.35;7.57;;;;;;;7.30;45.48;102941.41;4934753;28;20035;-53
2022/03/06 09:46:23;;;;;;;13.00;7.50;;;;;;;7.18;46.05;102945.88;4932882;28;20038;-51
2022/03/06 09:48:50;;;;;;;15.13;7.97;;;;;;;7.24;45.50;102943.66;4946982;28;20050;-54
2022/03/06 09:51:15;;;;;;;14.50;7.40;;;;;;;7.41;45.36;102942.03;4941602;28;20019;-52
2022/03/06 09:53:40;;;;;;;12.63;7.68;;;;;;;7.14;45.17;102942.19;4946421;28;20136;-56
2022/03/06 09:56:06;;;;;;;12.45;7.47;;;;;;;7.60;44.91;102937.13;4936884;28;20525;-52
2022/03/06 09:58:32;;;;;;;13.93;7.72;;;;;;;7.40;44.13;102943.75;4935213;28;20039;-53
2022/03/06 10:00:57;;;;;;;12.82;7.55;;;;;;;7.64;44.63;102940.00;4942738;28;20050;-53
2022/03/06 10:03:24;;;;;;;13.52;7.72;;;;;;;7.36;44.47;102933.09;4944935;28;20045;-51
2022/03/06 10:05:50;;;;;;;13.20;8.20;;;;;;;6.97;45.11;102936.78;4926560;28;20399;-54
2022/03/06 10:08:28;;;;;;;15.10;8.18;;;;;;;7.29;46.12;102939.63;4945841;28;20054;-54
2022/03/06 10:10:59;;;;;;;14.15;8.00;;;;;;;7.16;45.09;102939.69;4943576;28;20431;-53
2022/03/06 10:13:28;;;;;;;12.68;7.40;;;;;;;7.20;44.14;102944.25;4942791;28;20537;-52
2022/03/06 10:16:03;;;;;;;14.88;7.47;;;;;;;7.51;44.60;102940.06;4936948;28;20062;-56
2022/03/06 10:18:31;;;;;;;12.77;7.30;;;;;;;7.28;44.81;102941.31;4944546;28;20485;-54
2022/03/06 10:21:08;;;;;;;13.48;7.50;;;;;;;7.08;44.00;102947.00;4943710;28;20042;-50
2022/03/06 10:23:34;;;;;;;19.50;7.85;;;;;;;7.22;44.26;102946.16;4935640;28;20062;-55
2022/03/06 10:26:05;;;;;;;14.30;7.70;;;;;;;7.26;43.22;102955.88;4935240;28;20043;-55
2022/03/06 10:28:33;;;;;;;13.43;7.60;;;;;;;7.21;44.11;102956.41;4941539;28;20056;-54
2022/03/06 10:31:04;;;;;;;12.65;7.72;;;;;;;7.15;44.47;102951.75;4937939;28;20472;-53
2022/03/06 10:33:30;;;;;;;14.48;7.93;;;;;;;7.19;44.07;102961.53;4939436;28;20212;-52
2022/03/06 10:35:58;;;;;;;12.07;7.50;;;;;;;6.75;44.97;102974.38;4938161;28;20592;-52
2022/03/06 10:38:28;;;;;;;12.43;7.80;;;;;;;7.03;45.31;102968.28;4942846;28;20535;-53
2022/03/06 10:40:56;;;;;;;13.93;7.80;;;;;;;7.07;44.71;102972.88;4939797;28;20873;-51
2022/03/06 10:43:27;;;;;;;12.80;7.53;;;;;;;7.05;44.59;102972.78;4940152;28;20518;-52
2022/03/06 10:46:19;;;;;;;13.77;8.00;;;;;;;6.86;44.36;102968.16;4935290;28;20568;-51
2022/03/06 10:48:59;;;;;;;14.13;8.30;;;;;;;6.92;44.85;102960.75;4949607;28;20433;-50
2022/03/06 10:51:26;;;;;;;13.18;7.68;;;;;;;6.81;45.13;102971.28;4937258;28;20046;-52
2022/03/06 10:53:52;;;;;;;14.98;8.05;;;;;;;6.78;45.39;102961.59;4940557;28;20069;-58
2022/03/06 10:56:18;;;;;;;14.57;8.02;;;;;;;7.15;43.92;102961.25;4941960;28;20446;-51
2022/03/06 10:58:45;;;;;;;13.75;8.02;;;;;;;6.98;44.35;102960.22;4945060;28;20046;-51
2022/03/06 11:01:11;;;;;;;14.60;7.85;;;;;;;7.18;44.43;102957.16;4944526;28;20442;-50
2022/03/06 11:03:37;;;;;;;14.18;8.57;;;;;;;7.34;43.43;102959.84;4936570;28;20113;-51
2022/03/06 11:06:04;;;;;;;15.32;8.45;;;;;;;7.48;43.94;102959.78;4931498;28;20043;-52
2022/03/06 11:08:30;;;;;;;12.80;7.88;;;;;;;7.05;44.99;102953.72;4942373;28;20053;-52
2022/03/06 11:10:55;;;;;;;13.93;8.15;;;;;;;7.27;44.70;102957.69;4941681;28;20596;-51
2022/03/06 11:13:22;;;;;;;13.07;7.40;;;;;;;7.12;45.01;102948.09;4942994;28;20591;-54
2022/03/06 11:15:48;;;;;;;13.18;7.53;;;;;;;7.76;44.35;102973.56;4939807;28;20073;-54